createdAt,value
2017-05-05T00:00:03.037Z,0
2017-05-05T00:05:02.721Z,0
2017-05-05T00:10:02.550Z,0
2017-05-05T00:15:03.190Z,0
2017-05-05T00:20:02.905Z,0
2017-05-05T00:25:02.756Z,0
2017-05-05T00:30:02.511Z,0
2017-05-05T00:35:03.093Z,0
2017-05-05T00:40:02.795Z,0
2017-05-05T00:45:02.556Z,0
2017-05-05T00:50:03.331Z,0
2017-05-05T00:55:02.928Z,0
2017-05-05T01:00:02.720Z,0
2017-05-05T01:05:03.400Z,0
2017-05-05T01:10:03.168Z,0
2017-05-05T01:15:02.806Z,0
2017-05-05T01:20:02.458Z,0
2017-05-05T01:25:03.192Z,0
2017-05-05T01:30:02.793Z,0
2017-05-05T01:35:03.384Z,0
2017-05-05T01:40:03.086Z,0
2017-05-05T01:45:02.757Z,0
2017-05-05T01:50:03.350Z,0
2017-05-05T01:55:03.128Z,0
2017-05-05T02:00:02.797Z,0
2017-05-05T02:05:03.418Z,0
2017-05-05T02:10:03.224Z,0
2017-05-05T02:15:03.013Z,0
2017-05-05T02:20:02.664Z,0
2017-05-05T02:25:03.349Z,0
2017-05-05T02:30:03.089Z,0
2017-05-05T02:35:02.800Z,0
2017-05-05T02:40:02.563Z,0
2017-05-05T02:45:03.417Z,0
2017-05-05T02:50:03.200Z,0
2017-05-05T02:55:02.899Z,0
2017-05-05T03:00:02.581Z,0
2017-05-05T03:05:03.325Z,0
2017-05-05T03:10:03.100Z,0
2017-05-05T03:15:02.851Z,0
2017-05-05T03:20:02.487Z,0
2017-05-05T03:25:03.187Z,0
2017-05-05T03:30:02.850Z,0
2017-05-05T03:35:02.580Z,0
2017-05-05T03:40:03.307Z,2
2017-05-05T03:45:02.980Z,4
2017-05-05T03:50:02.688Z,8
2017-05-05T03:55:03.413Z,13
2017-05-05T04:00:03.483Z,38
2017-05-05T04:05:03.299Z,52
2017-05-05T04:10:02.983Z,55
2017-05-05T04:15:02.879Z,58
2017-05-05T04:20:02.774Z,56
2017-05-05T04:25:03.514Z,60
2017-05-05T04:30:03.154Z,61
2017-05-05T04:35:02.845Z,143
2017-05-05T04:40:02.624Z,270
2017-05-05T04:45:03.344Z,322
2017-05-05T04:50:03.089Z,314
2017-05-05T04:55:02.706Z,323
2017-05-05T05:00:03.440Z,337
2017-05-05T05:05:03.184Z,372
2017-05-05T05:10:02.966Z,481
2017-05-05T05:15:02.647Z,554
2017-05-05T05:20:03.415Z,607
2017-05-05T05:25:03.178Z,659
2017-05-05T05:30:02.911Z,684
2017-05-05T05:35:02.616Z,870
2017-05-05T05:40:03.258Z,897
2017-05-05T05:45:02.982Z,870
2017-05-05T05:50:02.722Z,897
2017-05-05T05:55:03.435Z,1000
2017-05-05T06:00:03.103Z,1000
2017-05-05T06:05:02.846Z,1000
2017-05-05T06:10:02.583Z,1000
2017-05-05T06:15:03.375Z,1000
2017-05-05T06:20:03.149Z,1000
2017-05-05T06:25:02.874Z,2000
2017-05-05T06:30:02.562Z,2000
2017-05-05T06:35:03.178Z,2000
2017-05-05T06:40:02.968Z,1000
2017-05-05T06:45:02.721Z,1000
2017-05-05T06:50:02.542Z,1000
2017-05-05T06:55:03.341Z,1000
2017-05-05T07:00:02.931Z,2000
2017-05-05T07:05:02.653Z,2000
2017-05-05T07:10:03.424Z,2000
2017-05-05T07:15:03.028Z,2000
2017-05-05T07:20:02.661Z,2000
2017-05-05T07:25:03.354Z,2000
2017-05-05T07:30:03.167Z,2000
2017-05-05T07:35:02.817Z,2000
2017-05-05T07:40:02.554Z,2000
2017-05-05T07:45:03.122Z,2000
2017-05-05T07:50:02.707Z,2000
2017-05-05T07:55:03.351Z,2000
2017-05-05T08:00:03.016Z,3000
2017-05-05T08:05:02.764Z,2000
2017-05-05T08:10:03.439Z,2000
2017-05-05T08:15:03.089Z,3000
2017-05-05T08:20:02.834Z,3000
2017-05-05T08:25:02.594Z,3000
2017-05-05T08:30:03.244Z,4000
2017-05-05T08:35:02.971Z,4000
2017-05-05T08:40:02.784Z,4000
2017-05-05T08:45:02.581Z,4000
2017-05-05T08:50:03.306Z,4000
2017-05-05T08:55:02.930Z,6000
2017-05-05T09:00:02.723Z,4000
2017-05-05T09:05:02.451Z,5000
2017-05-05T09:10:03.150Z,8000
2017-05-05T09:15:02.768Z,7000
2017-05-05T09:20:02.562Z,7000
2017-05-05T09:25:03.278Z,8000
2017-05-05T09:30:02.982Z,8000
2017-05-05T09:35:02.613Z,9000
2017-05-05T09:40:03.337Z,7000
2017-05-05T09:45:03.086Z,6000
2017-05-05T09:50:02.764Z,5000
2017-05-05T09:55:02.509Z,6000
2017-05-05T10:00:03.232Z,9000
2017-05-05T10:05:02.914Z,11000
2017-05-05T10:10:02.779Z,10000
2017-05-05T10:15:02.492Z,8000
2017-05-05T10:20:03.120Z,7000
2017-05-05T10:25:02.849Z,8000
2017-05-05T10:30:02.576Z,10000
2017-05-05T10:35:03.186Z,8000
2017-05-05T10:40:03.152Z,8000
2017-05-05T10:45:02.989Z,7000
2017-05-05T10:50:02.736Z,8000
2017-05-05T10:55:03.403Z,7000
2017-05-05T11:00:03.017Z,7000
2017-05-05T11:05:02.651Z,4000
2017-05-05T11:10:02.648Z,3000
2017-05-05T11:15:02.751Z,2000
2017-05-05T11:20:02.696Z,3000
2017-05-05T11:25:02.724Z,3000
2017-05-05T11:30:02.869Z,3000
2017-05-05T11:35:02.728Z,4000
2017-05-05T11:40:02.588Z,6000
2017-05-05T11:45:02.781Z,7000
2017-05-05T11:50:03.040Z,5000
2017-05-05T11:55:02.674Z,5000
2017-05-05T12:00:03.058Z,5000
2017-05-05T12:05:02.785Z,4000
2017-05-05T12:10:02.609Z,4000
2017-05-05T12:15:03.161Z,4000
2017-05-05T12:20:03.419Z,4000
2017-05-05T12:25:02.559Z,5000
2017-05-05T12:30:03.187Z,5000
2017-05-05T12:35:02.649Z,4000
2017-05-05T12:40:03.185Z,3000
2017-05-05T12:45:03.174Z,4000
2017-05-05T12:50:02.938Z,4000
2017-05-05T12:55:02.681Z,4000
2017-05-05T13:00:03.063Z,4000
2017-05-05T13:05:03.099Z,5000
2017-05-05T13:10:02.878Z,5000
2017-05-05T13:15:02.886Z,5000
2017-05-05T13:20:02.942Z,6000
2017-05-05T13:25:02.498Z,6000
2017-05-05T13:30:02.981Z,6000
2017-05-05T13:35:03.098Z,8000
2017-05-05T13:40:02.556Z,7000
2017-05-05T13:45:03.223Z,6000
2017-05-05T13:50:02.909Z,6000
2017-05-05T13:55:02.514Z,7000
2017-05-05T14:00:02.638Z,6000
2017-05-05T14:05:03.032Z,5000
2017-05-05T14:10:02.576Z,5000
2017-05-05T14:15:02.675Z,4000
2017-05-05T14:20:03.036Z,5000
2017-05-05T14:25:02.954Z,5000
2017-05-05T14:30:03.710Z,4000
2017-05-05T14:35:03.218Z,5000
2017-05-05T14:40:03.517Z,4000
2017-05-05T14:45:02.715Z,4000
2017-05-05T14:50:03.077Z,4000
2017-05-05T14:55:02.530Z,6000
2017-05-05T15:00:02.706Z,6000
2017-05-05T15:05:02.861Z,7000
2017-05-05T15:10:03.347Z,5000
2017-05-05T15:15:03.074Z,5000
2017-05-05T15:20:03.461Z,4000
2017-05-05T15:25:03.394Z,4000
2017-05-05T15:30:02.887Z,5000
2017-05-05T15:35:03.140Z,6000
2017-05-05T15:40:02.788Z,6000
2017-05-05T15:45:03.273Z,7000
2017-05-05T15:50:02.810Z,7000
2017-05-05T15:55:03.068Z,6000
2017-05-05T16:00:02.925Z,7000
2017-05-05T16:05:02.648Z,6000
2017-05-05T16:10:02.486Z,6000
2017-05-05T16:15:03.123Z,6000
2017-05-05T16:20:02.970Z,5000
2017-05-05T16:25:02.713Z,5000
2017-05-05T16:30:02.563Z,6000
2017-05-05T16:35:03.179Z,2000
2017-05-05T16:40:02.985Z,1000
2017-05-05T16:45:02.688Z,1000
2017-05-05T16:50:02.596Z,2000
2017-05-05T16:55:03.245Z,2000
2017-05-05T17:00:02.907Z,1000
2017-05-05T17:05:02.538Z,1000
2017-05-05T17:10:03.202Z,1000
2017-05-05T17:15:02.828Z,2000
2017-05-05T17:20:02.489Z,2000
2017-05-05T17:25:03.170Z,2000
2017-05-05T17:30:02.809Z,3000
2017-05-05T17:35:02.554Z,2000
2017-05-05T17:40:03.312Z,2000
2017-05-05T17:45:02.934Z,2000
2017-05-05T17:50:02.650Z,2000
2017-05-05T17:55:03.295Z,1000
2017-05-05T18:00:02.931Z,1000
2017-05-05T18:05:02.712Z,1000
2017-05-05T18:10:02.582Z,1000
2017-05-05T18:15:03.357Z,1000
2017-05-05T18:20:03.136Z,1000
2017-05-05T18:25:03.006Z,1000
2017-05-05T18:30:03.157Z,851
2017-05-05T18:35:02.837Z,746
2017-05-05T18:40:02.786Z,679
2017-05-05T18:45:03.472Z,458
2017-05-05T18:50:02.593Z,327
2017-05-05T18:55:02.546Z,251
2017-05-05T19:00:03.469Z,113
2017-05-05T19:05:03.457Z,80
2017-05-05T19:10:03.293Z,64
2017-05-05T19:15:03.030Z,53
2017-05-05T19:20:03.008Z,44
2017-05-05T19:25:02.655Z,30
2017-05-05T19:30:03.359Z,15
2017-05-05T19:35:03.217Z,7
2017-05-05T19:40:03.196Z,2
2017-05-05T19:45:03.010Z,2
2017-05-05T19:50:03.124Z,0
2017-05-05T19:55:03.037Z,0
2017-05-05T20:00:02.703Z,0
2017-05-05T20:05:03.346Z,0
2017-05-05T20:10:03.110Z,0
2017-05-05T20:15:02.902Z,0
2017-05-05T20:20:02.586Z,0
2017-05-05T20:25:03.203Z,0
2017-05-05T20:30:02.854Z,0
2017-05-05T20:35:02.637Z,0
2017-05-05T20:40:03.328Z,0
2017-05-05T20:45:03.011Z,0
2017-05-05T20:50:02.678Z,0
2017-05-05T20:55:02.531Z,0
2017-05-05T21:00:03.203Z,0
2017-05-05T21:05:02.886Z,0
2017-05-05T21:10:02.547Z,0
2017-05-05T21:15:03.201Z,0
2017-05-05T21:20:02.933Z,0
2017-05-05T21:25:02.574Z,0
2017-05-05T21:30:03.253Z,0
2017-05-05T21:35:02.996Z,0
2017-05-05T21:40:02.742Z,0
2017-05-05T21:45:03.317Z,0
2017-05-05T21:50:02.948Z,0
2017-05-05T21:55:02.810Z,0
2017-05-05T22:00:03.410Z,0
2017-05-05T22:05:03.001Z,0
2017-05-05T22:10:02.835Z,0
2017-05-05T22:15:02.570Z,0
2017-05-05T22:20:03.209Z,0
2017-05-05T22:25:02.845Z,0
2017-05-05T22:30:02.431Z,0
2017-05-05T22:35:03.226Z,0
2017-05-05T22:40:02.907Z,0
2017-05-05T22:45:02.640Z,0
2017-05-05T22:50:03.358Z,0
2017-05-05T22:55:03.156Z,0
2017-05-05T23:05:02.976Z,0
2017-05-05T23:10:02.855Z,0
2017-05-05T23:15:02.629Z,0
2017-05-05T23:20:03.294Z,0
2017-05-05T23:25:02.972Z,0
2017-05-05T23:30:02.641Z,0
2017-05-05T23:35:03.233Z,0
2017-05-05T23:40:02.918Z,0
2017-05-05T23:45:02.618Z,0
2017-05-05T23:50:03.329Z,0
2017-05-05T23:55:02.932Z,0
